createdAt,value
2018-09-18T00:00:27.914Z,5.97
2018-09-18T00:02:57.196Z,5.73
2018-09-18T00:05:25.805Z,6.53
2018-09-18T00:07:57.129Z,5.80
2018-09-18T00:10:26.657Z,6.70
2018-09-18T00:12:57.160Z,5.50
2018-09-18T00:15:26.093Z,5.80
2018-09-18T00:17:57.913Z,6.23
2018-09-18T00:20:27.840Z,6.13
2018-09-18T00:22:57.654Z,5.77
2018-09-18T00:25:27.944Z,5.83
2018-09-18T00:27:58.312Z,6.03
2018-09-18T00:30:27.090Z,7.17
2018-09-18T00:32:57.064Z,6.10
2018-09-18T00:35:26.361Z,6.93
2018-09-18T00:37:56.785Z,7.60
2018-09-18T00:40:26.147Z,7.40
2018-09-18T00:42:56.004Z,7.10
2018-09-18T00:45:24.561Z,6.93
2018-09-18T00:47:53.539Z,6.63
2018-09-18T00:50:23.942Z,6.70
2018-09-18T00:52:53.030Z,6.63
2018-09-18T00:55:22.664Z,6.80
2018-09-18T00:57:51.057Z,6.87
2018-09-18T01:00:20.349Z,6.90
2018-09-18T01:02:49.506Z,7.40
2018-09-18T01:05:17.932Z,7.70
2018-09-18T01:07:47.194Z,7.33
2018-09-18T01:10:16.574Z,7.50
2018-09-18T01:12:44.985Z,7.97
2018-09-18T01:15:13.344Z,7.10
2018-09-18T01:17:41.669Z,6.20
2018-09-18T01:20:10.102Z,6.40
2018-09-18T01:22:38.412Z,6.97
2018-09-18T01:25:07.002Z,7.17
2018-09-18T01:27:36.317Z,7.43
2018-09-18T01:30:05.742Z,7.60
2018-09-18T01:32:34.933Z,6.93
2018-09-18T01:35:04.172Z,7.70
2018-09-18T01:37:32.484Z,7.50
2018-09-18T01:40:01.850Z,6.80
2018-09-18T01:42:30.223Z,7.03
2018-09-18T01:44:59.469Z,7.20
2018-09-18T01:47:29.167Z,7.50
2018-09-18T01:49:59.931Z,7.70
2018-09-18T01:52:29.215Z,8.13
2018-09-18T01:54:59.158Z,7.73
2018-09-18T01:57:29.345Z,7.93
2018-09-18T01:59:59.109Z,7.40
2018-09-18T02:02:28.084Z,8.03
2018-09-18T02:04:56.816Z,9.10
2018-09-18T02:07:26.149Z,8.30
2018-09-18T02:09:55.975Z,8.40
2018-09-18T02:12:24.866Z,8.20
2018-09-18T02:14:54.037Z,8.37
2018-09-18T02:17:22.516Z,7.17
2018-09-18T02:19:50.836Z,7.70
2018-09-18T02:22:19.189Z,8.33
2018-09-18T02:24:47.546Z,7.63
2018-09-18T02:27:15.868Z,8.40
2018-09-18T02:29:45.125Z,8.67
2018-09-18T02:32:13.453Z,8.17
2018-09-18T02:34:41.773Z,7.60
2018-09-18T02:37:10.105Z,8.77
2018-09-18T02:39:38.483Z,7.70
2018-09-18T02:42:07.009Z,8.53
2018-09-18T02:44:35.507Z,9.00
2018-09-18T02:47:03.844Z,9.23
2018-09-18T02:49:32.252Z,9.27
2018-09-18T02:52:00.655Z,8.20
2018-09-18T02:54:29.096Z,8.50
2018-09-18T02:56:58.797Z,8.17
2018-09-18T02:59:29.078Z,9.53
2018-09-18T03:01:58.243Z,9.40
2018-09-18T03:04:26.678Z,8.27
2018-09-18T03:06:57.098Z,8.17
2018-09-18T03:09:27.066Z,8.47
2018-09-18T03:11:57.645Z,8.20
2018-09-18T03:14:27.044Z,8.07
2018-09-18T03:16:58.612Z,9.10
2018-09-18T03:19:28.601Z,8.10
2018-09-18T03:21:58.661Z,8.60
2018-09-18T03:24:28.733Z,8.57
2018-09-18T03:26:58.053Z,9.60
2018-09-18T03:29:27.471Z,8.00
2018-09-18T03:31:55.816Z,8.70
2018-09-18T03:34:24.413Z,7.60
2018-09-18T03:36:53.703Z,8.70
2018-09-18T03:39:23.973Z,9.27
2018-09-18T03:41:54.644Z,9.10
2018-09-18T03:44:24.131Z,9.03
2018-09-18T03:46:54.273Z,8.47
2018-09-18T03:49:23.576Z,8.37
2018-09-18T03:51:53.249Z,9.17
2018-09-18T03:54:22.485Z,9.47
2018-09-18T03:56:51.692Z,8.23
2018-09-18T03:59:21.073Z,8.83
2018-09-18T04:01:49.393Z,8.63
2018-09-18T04:04:18.684Z,7.90
2018-09-18T04:06:47.890Z,9.40
2018-09-18T04:09:16.277Z,7.67
2018-09-18T04:11:45.534Z,9.00
2018-09-18T04:14:14.914Z,7.70
2018-09-18T04:16:44.320Z,8.07
2018-09-18T04:19:12.642Z,8.00
2018-09-18T04:21:42.968Z,9.17
2018-09-18T04:24:12.386Z,10.30
2018-09-18T04:26:42.197Z,8.50
2018-09-18T04:29:10.773Z,9.50
2018-09-18T04:31:40.536Z,9.37
2018-09-18T04:34:09.102Z,9.43
2018-09-18T04:36:37.648Z,9.53
2018-09-18T04:39:08.968Z,9.37
2018-09-18T04:41:38.277Z,9.40
2018-09-18T04:44:06.945Z,11.03
2018-09-18T04:46:35.298Z,11.30
2018-09-18T04:49:03.633Z,10.00
2018-09-18T04:51:32.024Z,9.77
2018-09-18T04:54:00.364Z,10.43
2018-09-18T04:56:29.105Z,10.03
2018-09-18T04:58:58.505Z,10.83
2018-09-18T05:01:27.373Z,10.40
2018-09-18T05:03:56.304Z,10.63
2018-09-18T05:06:27.487Z,10.80
2018-09-18T05:08:56.300Z,10.23
2018-09-18T05:11:27.289Z,10.73
2018-09-18T05:13:57.051Z,10.50
2018-09-18T05:16:27.589Z,11.50
2018-09-18T05:18:56.571Z,10.67
2018-09-18T05:21:27.261Z,10.90
2018-09-18T05:23:56.192Z,11.80
2018-09-18T05:26:26.441Z,12.57
2018-09-18T05:28:56.206Z,10.43
2018-09-18T05:31:26.147Z,11.60
2018-09-18T05:33:55.793Z,10.80
2018-09-18T05:36:27.165Z,11.20
2018-09-18T05:38:58.040Z,11.80
2018-09-18T05:41:29.035Z,10.83
2018-09-18T05:43:59.310Z,10.23
2018-09-18T05:46:28.673Z,10.47
2018-09-18T05:48:57.971Z,11.50
2018-09-18T05:51:26.301Z,10.23
2018-09-18T05:53:56.185Z,9.23
2018-09-18T05:56:25.087Z,10.47
2018-09-18T05:58:56.236Z,10.90
2018-09-18T06:01:25.266Z,11.30
2018-09-18T06:03:55.194Z,10.07
2018-09-18T06:06:25.736Z,9.50
2018-09-18T06:08:55.727Z,9.30
2018-09-18T06:11:25.221Z,11.23
2018-09-18T06:13:55.393Z,10.50
2018-09-18T06:16:27.280Z,10.40
2018-09-18T06:18:57.358Z,9.80
2018-09-18T06:21:27.338Z,10.07
2018-09-18T06:23:57.269Z,10.50
2018-09-18T06:26:27.225Z,9.40
2018-09-18T06:28:57.219Z,10.00
2018-09-18T06:31:26.171Z,10.17
2018-09-18T06:33:55.793Z,9.13
2018-09-18T06:36:27.512Z,10.00
2018-09-18T06:38:57.293Z,10.10
2018-09-18T06:41:27.261Z,10.57
2018-09-18T06:43:57.757Z,10.43
2018-09-18T06:46:28.273Z,11.17
2018-09-18T06:48:58.245Z,12.53
2018-09-18T06:51:28.861Z,9.27
2018-09-18T06:53:59.239Z,9.47
2018-09-18T06:56:28.905Z,8.77
2018-09-18T06:58:58.313Z,8.90
2018-09-18T07:01:28.469Z,9.43
2018-09-18T07:03:58.702Z,9.27
2018-09-18T07:06:28.242Z,10.63
2018-09-18T07:08:58.666Z,9.17
2018-09-18T07:11:28.061Z,9.87
2018-09-18T07:13:58.453Z,8.73
2018-09-18T07:16:29.179Z,9.70
2018-09-18T07:18:59.625Z,8.80
2018-09-18T07:21:28.458Z,8.83
2018-09-18T07:23:58.397Z,8.60
2018-09-18T07:26:27.045Z,7.80
2018-09-18T07:28:57.346Z,8.47
2018-09-18T07:31:27.220Z,9.00
2018-09-18T07:33:56.276Z,8.30
2018-09-18T07:36:25.290Z,8.70
2018-09-18T07:38:53.663Z,8.70
2018-09-18T07:41:22.005Z,10.23
2018-09-18T07:43:50.389Z,7.30
2018-09-18T07:46:18.865Z,8.03
2018-09-18T07:48:47.193Z,7.60
2018-09-18T07:51:15.617Z,7.13
2018-09-18T07:53:44.162Z,7.43
2018-09-18T07:56:12.596Z,7.87
2018-09-18T07:58:41.020Z,7.00
2018-09-18T08:01:09.353Z,7.83
2018-09-18T08:03:38.581Z,8.40
2018-09-18T08:06:06.997Z,7.47
2018-09-18T08:08:35.374Z,7.67
2018-09-18T08:11:03.788Z,7.80
2018-09-18T08:13:32.402Z,6.70
2018-09-18T08:16:02.905Z,8.40
2018-09-18T08:18:32.353Z,7.63
2018-09-18T08:21:00.877Z,8.10
2018-09-18T08:23:29.214Z,8.47
2018-09-18T08:26:00.412Z,6.93
2018-09-18T08:28:29.130Z,7.70
2018-09-18T08:30:58.458Z,8.50
2018-09-18T08:33:28.824Z,6.27
2018-09-18T08:35:57.409Z,6.70
2018-09-18T08:38:25.839Z,8.13
2018-09-18T08:40:55.115Z,7.30
2018-09-18T08:43:24.583Z,6.43
2018-09-18T08:45:53.647Z,7.43
2018-09-18T08:48:27.293Z,7.37
2018-09-18T08:50:57.094Z,7.70
2018-09-18T08:53:27.101Z,8.30
2018-09-18T08:55:58.414Z,6.83
2018-09-18T08:58:27.364Z,7.03
2018-09-18T09:00:57.476Z,7.63
2018-09-18T09:03:26.264Z,8.13
2018-09-18T09:05:55.034Z,7.40
2018-09-18T09:08:25.410Z,7.97
2018-09-18T09:10:54.799Z,7.47
2018-09-18T09:13:23.939Z,7.93
2018-09-18T09:15:53.036Z,6.53
2018-09-18T09:18:23.953Z,7.90
2018-09-18T09:20:54.084Z,7.13
2018-09-18T09:23:23.122Z,6.90
2018-09-18T09:25:51.465Z,7.37
2018-09-18T09:28:19.900Z,8.00
2018-09-18T09:30:49.283Z,6.93
2018-09-18T09:33:18.664Z,6.70
2018-09-18T09:35:47.934Z,7.60
2018-09-18T09:38:16.340Z,9.50
2018-09-18T09:40:45.967Z,7.50
2018-09-18T09:43:14.427Z,7.17
2018-09-18T09:45:42.816Z,7.27
2018-09-18T09:48:11.178Z,7.67
2018-09-18T09:50:40.380Z,7.30
2018-09-18T09:53:08.820Z,7.57
2018-09-18T09:55:37.133Z,7.40
2018-09-18T09:58:06.553Z,6.80
2018-09-18T10:00:46.008Z,7.20
2018-09-18T10:03:15.523Z,6.60
2018-09-18T10:05:43.832Z,6.60
2018-09-18T10:08:12.149Z,7.27
2018-09-18T10:10:40.541Z,6.57
2018-09-18T10:13:08.889Z,6.30
2018-09-18T10:15:37.371Z,7.30
2018-09-18T10:18:05.972Z,7.60
2018-09-18T10:20:34.269Z,7.90
2018-09-18T10:23:02.597Z,5.63
2018-09-18T10:25:30.928Z,7.87
2018-09-18T10:27:59.672Z,7.10
2018-09-18T10:30:29.068Z,6.37
2018-09-18T10:32:57.428Z,6.80
2018-09-18T10:35:26.676Z,7.00
2018-09-18T10:37:57.849Z,5.80
2018-09-18T10:40:27.553Z,6.37
2018-09-18T10:42:56.438Z,6.07
2018-09-18T10:45:25.594Z,6.37
2018-09-18T10:47:57.430Z,5.77
2018-09-18T10:50:25.959Z,6.00
2018-09-18T10:52:54.926Z,5.87
2018-09-18T10:55:24.377Z,7.20
2018-09-18T10:57:53.887Z,6.77
2018-09-18T11:00:22.456Z,8.03
2018-09-18T11:02:50.833Z,5.93
2018-09-18T11:05:19.150Z,6.00
2018-09-18T11:07:47.609Z,6.33
2018-09-18T11:10:16.177Z,6.90
2018-09-18T11:12:44.573Z,6.30
2018-09-18T11:15:12.945Z,6.30
2018-09-18T11:17:42.297Z,6.97
2018-09-18T11:20:10.714Z,6.80
2018-09-18T11:22:39.940Z,6.60
2018-09-18T11:25:09.325Z,7.37
2018-09-18T11:27:37.806Z,6.37
2018-09-18T11:30:07.193Z,6.73
2018-09-18T11:32:36.513Z,6.17
2018-09-18T11:35:04.929Z,5.57
2018-09-18T11:37:34.272Z,6.90
2018-09-18T11:40:03.618Z,7.17
2018-09-18T11:42:31.973Z,7.30
2018-09-18T11:45:01.406Z,5.87
2018-09-18T11:47:30.819Z,5.77
2018-09-18T11:50:00.043Z,5.43
2018-09-18T11:52:29.325Z,5.60
2018-09-18T11:54:59.589Z,10.53
2018-09-18T11:57:30.298Z,4.87
2018-09-18T11:59:59.606Z,5.10
2018-09-18T12:02:28.965Z,5.30
2018-09-18T12:04:59.775Z,5.80
2018-09-18T12:07:29.023Z,5.30
2018-09-18T12:09:58.968Z,7.80
2018-09-18T12:12:28.517Z,5.43
2018-09-18T12:14:58.739Z,6.73
2018-09-18T12:17:28.206Z,6.77
2018-09-18T12:19:58.045Z,6.40
2018-09-18T12:22:27.533Z,5.93
2018-09-18T12:24:57.658Z,5.90
2018-09-18T12:27:27.457Z,5.87
2018-09-18T12:29:57.962Z,4.90
2018-09-18T12:32:28.497Z,5.20
2018-09-18T12:34:57.849Z,5.83
2018-09-18T12:37:27.325Z,5.57
2018-09-18T12:39:56.560Z,5.30
2018-09-18T12:42:26.878Z,5.80
2018-09-18T12:44:56.459Z,5.87
2018-09-18T12:47:25.465Z,5.47
2018-09-18T12:49:55.769Z,5.00
2018-09-18T12:52:26.490Z,5.57
2018-09-18T12:54:56.708Z,5.80
2018-09-18T12:57:27.318Z,5.47
2018-09-18T12:59:57.621Z,6.17
2018-09-18T13:02:27.711Z,5.33
2018-09-18T13:04:56.420Z,5.60
2018-09-18T13:07:28.792Z,5.40
2018-09-18T13:09:57.722Z,5.13
2018-09-18T13:12:26.846Z,5.47
2018-09-18T13:14:57.742Z,4.83
2018-09-18T13:17:27.588Z,5.37
2018-09-18T13:19:57.594Z,5.40
2018-09-18T13:22:27.430Z,5.30
2018-09-18T13:24:57.335Z,5.13
2018-09-18T13:27:26.950Z,5.40
2018-09-18T13:29:57.491Z,5.87
2018-09-18T13:32:26.507Z,5.47
2018-09-18T13:34:56.841Z,5.33
2018-09-18T13:37:27.776Z,5.03
2018-09-18T13:40:20.519Z,6.30
2018-09-18T13:42:49.732Z,5.40
2018-09-18T13:45:19.044Z,7.00
2018-09-18T13:47:49.058Z,5.97
2018-09-18T13:50:17.465Z,6.20
2018-09-18T13:52:46.838Z,5.60
2018-09-18T13:55:16.154Z,5.53
2018-09-18T13:57:45.411Z,5.47
2018-09-18T14:00:14.745Z,5.50
2018-09-18T14:02:44.174Z,7.47
2018-09-18T14:05:13.396Z,4.50
2018-09-18T14:07:42.605Z,5.60
2018-09-18T14:10:13.923Z,5.10
2018-09-18T14:12:42.241Z,4.40
2018-09-18T14:15:11.788Z,5.30
2018-09-18T14:17:40.405Z,5.40
2018-09-18T14:20:09.717Z,6.20
2018-09-18T14:22:39.023Z,5.50
2018-09-18T14:25:08.298Z,6.30
2018-09-18T14:27:37.505Z,5.87
2018-09-18T14:30:06.834Z,9.03
2018-09-18T14:32:35.499Z,5.80
2018-09-18T14:35:04.717Z,6.17
2018-09-18T14:37:33.078Z,5.27
2018-09-18T14:40:02.309Z,5.20
2018-09-18T14:42:30.685Z,5.87
2018-09-18T14:45:01.089Z,4.70
2018-09-18T14:47:29.537Z,4.80
2018-09-18T14:50:00.364Z,5.23
2018-09-18T14:52:29.861Z,5.30
2018-09-18T14:54:59.123Z,4.97
2018-09-18T14:57:29.093Z,5.90
2018-09-18T14:59:59.651Z,6.23
2018-09-18T15:02:29.477Z,6.60
2018-09-18T15:04:59.825Z,5.30
2018-09-18T15:07:29.109Z,5.53
2018-09-18T15:09:59.445Z,5.57
2018-09-18T15:12:29.617Z,5.27
2018-09-18T15:15:00.412Z,6.63
2018-09-18T15:17:29.723Z,5.33
2018-09-18T15:20:00.493Z,5.70
2018-09-18T15:22:30.118Z,5.90
2018-09-18T15:24:59.310Z,5.90
2018-09-18T15:27:28.672Z,5.20
2018-09-18T15:29:57.693Z,5.67
2018-09-18T15:32:27.229Z,6.00
2018-09-18T15:34:55.710Z,6.27
2018-09-18T15:37:25.157Z,5.43
2018-09-18T15:39:54.218Z,5.07
2018-09-18T15:42:23.547Z,4.50
2018-09-18T15:44:51.866Z,5.10
2018-09-18T15:47:20.208Z,5.40
2018-09-18T15:49:48.831Z,5.40
2018-09-18T15:52:17.278Z,5.37
2018-09-18T15:54:45.765Z,4.93
2018-09-18T15:57:14.433Z,5.50
2018-09-18T15:59:42.868Z,5.80
2018-09-18T16:02:11.421Z,5.53
2018-09-18T16:04:39.769Z,5.63
2018-09-18T16:07:08.308Z,5.27
2018-09-18T16:09:36.847Z,5.03
2018-09-18T16:12:05.262Z,5.40
2018-09-18T16:14:33.596Z,5.43
2018-09-18T16:17:01.982Z,5.00
2018-09-18T16:19:30.279Z,5.33
2018-09-18T16:22:00.117Z,5.27
2018-09-18T16:24:29.543Z,4.80
2018-09-18T16:26:58.818Z,4.90
2018-09-18T16:29:27.693Z,5.33
2018-09-18T16:31:56.604Z,6.30
2018-09-18T16:34:26.989Z,10.10
2018-09-18T16:36:57.649Z,6.47
2018-09-18T16:39:27.664Z,7.00
2018-09-18T16:41:57.090Z,6.30
2018-09-18T16:44:27.537Z,5.00
2018-09-18T16:46:57.845Z,4.60
2018-09-18T16:49:30.512Z,5.83
2018-09-18T16:51:59.945Z,5.30
2018-09-18T16:54:30.256Z,4.93
2018-09-18T16:56:59.423Z,5.37
2018-09-18T16:59:30.146Z,5.30
2018-09-18T17:01:59.523Z,6.10
2018-09-18T17:04:28.778Z,5.73
2018-09-18T17:06:57.689Z,6.23
2018-09-18T17:09:27.616Z,5.80
2018-09-18T17:11:56.731Z,6.03
2018-09-18T17:14:26.683Z,5.60
2018-09-18T17:16:56.652Z,5.73
2018-09-18T17:19:26.181Z,5.93
2018-09-18T17:21:57.672Z,5.73
2018-09-18T17:24:27.568Z,5.50
2018-09-18T17:26:56.717Z,5.50
2018-09-18T17:29:27.271Z,5.87
2018-09-18T17:31:57.503Z,6.10
2018-09-18T17:34:26.600Z,6.53
2018-09-18T17:36:56.632Z,6.57
2018-09-18T17:39:26.991Z,6.40
2018-09-18T17:41:56.376Z,6.80
2018-09-18T17:44:24.824Z,6.17
2018-09-18T17:46:53.652Z,7.10
2018-09-18T17:49:22.137Z,6.87
2018-09-18T17:51:50.551Z,6.47
2018-09-18T17:54:19.828Z,6.83
2018-09-18T17:56:49.013Z,6.90
2018-09-18T17:59:18.293Z,6.40
2018-09-18T18:01:47.426Z,6.53
2018-09-18T18:04:16.864Z,7.10
2018-09-18T18:06:46.149Z,6.30
2018-09-18T18:09:15.565Z,6.03
2018-09-18T18:11:43.984Z,6.67
2018-09-18T18:14:12.469Z,6.30
2018-09-18T18:16:40.866Z,31.80
2018-09-18T18:19:10.130Z,18.80
2018-09-18T18:21:41.015Z,8.77
2018-09-18T18:24:10.268Z,7.23
2018-09-18T18:26:39.285Z,7.10
2018-09-18T18:29:09.301Z,7.53
2018-09-18T18:31:39.751Z,7.90
2018-09-18T18:34:09.549Z,7.10
2018-09-18T18:36:40.377Z,7.40
2018-09-18T18:39:10.424Z,7.70
2018-09-18T18:41:40.208Z,7.63
2018-09-18T18:44:10.590Z,7.20
2018-09-18T18:46:39.778Z,7.93
2018-09-18T18:49:09.257Z,7.63
2018-09-18T18:51:38.469Z,7.10
2018-09-18T18:54:07.024Z,6.87
2018-09-18T18:56:35.423Z,7.30
2018-09-18T18:59:04.060Z,7.70
2018-09-18T19:01:34.368Z,8.30
2018-09-18T19:04:02.739Z,7.20
2018-09-18T19:06:31.299Z,7.47
2018-09-18T19:09:00.217Z,7.13
2018-09-18T19:11:29.461Z,7.40
2018-09-18T19:13:58.650Z,9.10
2018-09-18T19:16:27.857Z,7.50
2018-09-18T19:18:57.706Z,8.07
2018-09-18T19:21:27.760Z,7.40
2018-09-18T19:23:57.762Z,7.37
2018-09-18T19:26:28.081Z,7.13
2018-09-18T19:28:57.811Z,7.70
2018-09-18T19:31:27.938Z,7.40
2018-09-18T19:33:57.411Z,7.37
2018-09-18T19:36:27.749Z,7.27
2018-09-18T19:38:57.674Z,8.10
2018-09-18T19:41:27.861Z,7.67
2018-09-18T19:43:57.357Z,7.07
2018-09-18T19:46:27.612Z,8.13
2018-09-18T19:48:56.648Z,7.43
2018-09-18T19:51:25.933Z,7.60
2018-09-18T19:53:56.739Z,7.70
2018-09-18T19:56:26.698Z,7.13
2018-09-18T19:58:55.269Z,7.87
2018-09-18T20:01:23.773Z,7.50
2018-09-18T20:03:52.116Z,8.07
2018-09-18T20:06:20.447Z,8.17
2018-09-18T20:08:49.076Z,7.53
2018-09-18T20:11:17.588Z,7.60
2018-09-18T20:13:46.835Z,8.37
2018-09-18T20:16:15.229Z,8.07
2018-09-18T20:18:43.661Z,6.80
2018-09-18T20:21:12.221Z,7.43
2018-09-18T20:23:40.770Z,7.70
2018-09-18T20:26:09.912Z,7.07
2018-09-18T20:28:39.528Z,7.20
2018-09-18T20:31:07.972Z,6.97
2018-09-18T20:33:36.317Z,7.63
2018-09-18T20:36:06.079Z,7.50
2018-09-18T20:38:34.517Z,7.00
2018-09-18T20:41:03.798Z,9.60
2018-09-18T20:43:33.258Z,9.90
2018-09-18T20:46:02.785Z,11.67
2018-09-18T20:48:32.055Z,9.27
2018-09-18T20:51:01.408Z,7.47
2018-09-18T20:53:30.672Z,6.63
2018-09-18T20:56:00.597Z,7.20
2018-09-18T20:58:29.918Z,6.67
2018-09-18T21:00:59.377Z,7.30
2018-09-18T21:03:28.862Z,5.60
2018-09-18T21:05:57.877Z,6.53
2018-09-18T21:08:26.293Z,7.13
2018-09-18T21:10:54.646Z,7.07
2018-09-18T21:13:22.954Z,7.40
2018-09-18T21:15:51.288Z,6.70
2018-09-18T21:18:20.660Z,6.87
2018-09-18T21:20:49.037Z,7.80
2018-09-18T21:23:17.549Z,8.23
2018-09-18T21:26:18.132Z,7.43
2018-09-18T21:28:47.918Z,7.70
2018-09-18T21:31:17.444Z,8.43
2018-09-18T21:33:45.790Z,7.67
2018-09-18T21:36:14.263Z,9.03
2018-09-18T21:38:42.662Z,7.47
2018-09-18T21:41:10.983Z,6.50
2018-09-18T21:43:41.021Z,6.30
2018-09-18T21:46:10.470Z,6.50
2018-09-18T21:48:40.088Z,6.93
2018-09-18T21:51:09.763Z,6.80
2018-09-18T21:53:39.383Z,6.43
2018-09-18T21:56:10.317Z,6.77
2018-09-18T21:58:40.741Z,5.93
2018-09-18T22:01:09.973Z,6.70
2018-09-18T22:03:40.801Z,6.53
2018-09-18T22:06:11.198Z,7.37
2018-09-18T22:08:40.439Z,6.37
2018-09-18T22:11:11.228Z,7.53
2018-09-18T22:13:40.560Z,6.80
2018-09-18T22:16:09.934Z,6.80
2018-09-18T22:18:39.344Z,6.77
2018-09-18T22:21:09.353Z,6.47
2018-09-18T22:23:38.816Z,6.40
2018-09-18T22:26:07.440Z,6.93
2018-09-18T22:31:38.858Z,6.87
2018-09-18T22:34:08.873Z,6.93
2018-09-18T22:36:39.122Z,7.90
2018-09-18T22:39:09.657Z,5.80
2018-09-18T22:41:39.312Z,7.83
2018-09-18T22:44:08.530Z,6.53
2018-09-18T22:46:38.290Z,7.60
2018-09-18T22:49:07.566Z,7.60
2018-09-18T22:51:37.196Z,7.50
2018-09-18T22:54:06.314Z,7.40
2018-09-18T22:56:35.140Z,8.13
2018-09-18T22:59:03.584Z,7.03
2018-09-18T23:01:34.137Z,7.47
2018-09-18T23:04:03.433Z,7.10
2018-09-18T23:06:31.872Z,7.10
2018-09-18T23:09:01.557Z,7.87
2018-09-18T23:11:30.937Z,7.53
2018-09-18T23:14:00.261Z,7.23
2018-09-18T23:16:29.597Z,6.93
2018-09-18T23:18:58.001Z,6.90
2018-09-18T23:21:26.289Z,8.17
2018-09-18T23:23:55.754Z,8.00
2018-09-18T23:26:24.099Z,7.60
2018-09-18T23:28:53.493Z,7.20
2018-09-18T23:31:21.926Z,7.17
2018-09-18T23:33:51.305Z,7.40
2018-09-18T23:36:19.667Z,7.77
2018-09-18T23:38:49.965Z,7.10
2018-09-18T23:41:19.885Z,7.37
2018-09-18T23:43:50.512Z,7.40
2018-09-18T23:46:20.061Z,6.97
2018-09-18T23:48:50.044Z,8.13
2018-09-18T23:51:19.563Z,7.80
2018-09-18T23:53:47.880Z,8.10
2018-09-18T23:56:16.378Z,7.50
2018-09-18T23:58:45.633Z,8.17
